sensor_id;sensor_type;location;lat;lon;timestamp;temperature;humidity
19342;DHT22;9807;48.258;12.690;2023-10-13T00:01:57;18.50;99.90
19342;DHT22;9807;48.258;12.690;2023-10-13T00:04:25;18.50;99.90
19342;DHT22;9807;48.258;12.690;2023-10-13T00:06:51;18.50;99.90
19342;DHT22;9807;48.258;12.690;2023-10-13T00:09:21;18.50;99.90
19342;DHT22;9807;48.258;12.690;2023-10-13T00:11:54;18.50;99.90
19342;DHT22;9807;48.258;12.690;2023-10-13T00:14:21;18.50;99.90
19342;DHT22;9807;48.258;12.690;2023-10-13T00:16:47;18.50;99.90
19342;DHT22;9807;48.258;12.690;2023-10-13T00:19:36;18.40;99.90
19342;DHT22;9807;48.258;12.690;2023-10-13T00:22:12;18.40;99.90
19342;DHT22;9807;48.258;12.690;2023-10-13T00:24:43;18.40;99.90
19342;DHT22;9807;48.258;12.690;2023-10-13T00:27:12;18.40;99.90
19342;DHT22;9807;48.258;12.690;2023-10-13T00:29:56;18.40;99.90
19342;DHT22;9807;48.258;12.690;2023-10-13T00:32:47;18.30;99.90
19342;DHT22;9807;48.258;12.690;2023-10-13T00:35:19;18.30;99.90
19342;DHT22;9807;48.258;12.690;2023-10-13T00:37:56;18.20;99.90
19342;DHT22;9807;48.258;12.690;2023-10-13T00:40:24;18.30;99.90
19342;DHT22;9807;48.258;12.690;2023-10-13T00:42:59;18.20;99.90
19342;DHT22;9807;48.258;12.690;2023-10-13T00:45:53;18.20;99.90
19342;DHT22;9807;48.258;12.690;2023-10-13T00:48:45;18.20;99.90
19342;DHT22;9807;48.258;12.690;2023-10-13T00:51:17;18.00;99.90
19342;DHT22;9807;48.258;12.690;2023-10-13T00:54:06;18.00;99.90
19342;DHT22;9807;48.258;12.690;2023-10-13T00:56:39;18.00;99.90
19342;DHT22;9807;48.258;12.690;2023-10-13T00:59:22;18.00;99.90
19342;DHT22;9807;48.258;12.690;2023-10-13T01:01:56;17.90;99.90
19342;DHT22;9807;48.258;12.690;2023-10-13T01:04:22;17.90;99.90
19342;DHT22;9807;48.258;12.690;2023-10-13T01:06:53;17.90;99.90
19342;DHT22;9807;48.258;12.690;2023-10-13T01:09:19;17.90;99.90
19342;DHT22;9807;48.258;12.690;2023-10-13T01:11:49;17.80;99.90
19342;DHT22;9807;48.258;12.690;2023-10-13T01:14:19;17.60;99.90
19342;DHT22;9807;48.258;12.690;2023-10-13T01:16:47;17.60;99.90
19342;DHT22;9807;48.258;12.690;2023-10-13T01:19:16;17.70;99.90
19342;DHT22;9807;48.258;12.690;2023-10-13T01:21:50;17.60;99.90
19342;DHT22;9807;48.258;12.690;2023-10-13T01:24:22;17.40;99.90
19342;DHT22;9807;48.258;12.690;2023-10-13T01:26:50;17.40;99.90
19342;DHT22;9807;48.258;12.690;2023-10-13T01:29:19;17.30;99.90
19342;DHT22;9807;48.258;12.690;2023-10-13T01:31:45;17.20;99.90
19342;DHT22;9807;48.258;12.690;2023-10-13T01:34:16;17.10;99.90
19342;DHT22;9807;48.258;12.690;2023-10-13T01:36:51;17.20;99.90
19342;DHT22;9807;48.258;12.690;2023-10-13T01:39:23;17.30;99.90
19342;DHT22;9807;48.258;12.690;2023-10-13T01:41:52;17.40;99.90
19342;DHT22;9807;48.258;12.690;2023-10-13T01:44:25;17.40;99.90
19342;DHT22;9807;48.258;12.690;2023-10-13T01:47:04;17.50;99.90
19342;DHT22;9807;48.258;12.690;2023-10-13T01:49:34;17.50;99.90
19342;DHT22;9807;48.258;12.690;2023-10-13T01:52:08;17.50;99.90
19342;DHT22;9807;48.258;12.690;2023-10-13T01:54:37;17.50;99.90
19342;DHT22;9807;48.258;12.690;2023-10-13T01:57:07;17.50;99.90
19342;DHT22;9807;48.258;12.690;2023-10-13T01:59:32;17.50;99.90
19342;DHT22;9807;48.258;12.690;2023-10-13T02:01:58;17.60;99.90
19342;DHT22;9807;48.258;12.690;2023-10-13T02:04:27;17.50;99.90
19342;DHT22;9807;48.258;12.690;2023-10-13T02:06:53;17.60;99.90
19342;DHT22;9807;48.258;12.690;2023-10-13T02:09:18;17.50;99.90
19342;DHT22;9807;48.258;12.690;2023-10-13T02:11:55;17.50;99.90
19342;DHT22;9807;48.258;12.690;2023-10-13T02:14:22;17.40;99.90
19342;DHT22;9807;48.258;12.690;2023-10-13T02:16:51;17.40;99.90
19342;DHT22;9807;48.258;12.690;2023-10-13T02:19:21;17.40;99.90
19342;DHT22;9807;48.258;12.690;2023-10-13T02:21:48;17.40;99.90
19342;DHT22;9807;48.258;12.690;2023-10-13T02:24:24;17.40;99.90
19342;DHT22;9807;48.258;12.690;2023-10-13T02:26:56;17.40;99.90
19342;DHT22;9807;48.258;12.690;2023-10-13T02:29:28;17.40;99.90
19342;DHT22;9807;48.258;12.690;2023-10-13T02:31:54;17.30;99.90
19342;DHT22;9807;48.258;12.690;2023-10-13T02:34:21;17.30;99.90
19342;DHT22;9807;48.258;12.690;2023-10-13T02:36:49;17.30;99.90
19342;DHT22;9807;48.258;12.690;2023-10-13T02:39:15;17.30;99.90
19342;DHT22;9807;48.258;12.690;2023-10-13T02:41:51;17.30;99.90
19342;DHT22;9807;48.258;12.690;2023-10-13T02:44:18;17.30;99.90
19342;DHT22;9807;48.258;12.690;2023-10-13T02:46:56;17.30;99.90
19342;DHT22;9807;48.258;12.690;2023-10-13T02:49:24;17.30;99.90
19342;DHT22;9807;48.258;12.690;2023-10-13T02:51:51;17.30;99.90
19342;DHT22;9807;48.258;12.690;2023-10-13T02:54:19;17.30;99.90
19342;DHT22;9807;48.258;12.690;2023-10-13T02:56:45;17.20;99.90
19342;DHT22;9807;48.258;12.690;2023-10-13T02:59:25;17.20;99.90
19342;DHT22;9807;48.258;12.690;2023-10-13T03:02:03;17.20;99.90
19342;DHT22;9807;48.258;12.690;2023-10-13T03:04:48;17.20;99.90
19342;DHT22;9807;48.258;12.690;2023-10-13T03:07:14;17.20;99.90
19342;DHT22;9807;48.258;12.690;2023-10-13T03:09:52;17.20;99.90
19342;DHT22;9807;48.258;12.690;2023-10-13T03:12:19;17.20;99.90
19342;DHT22;9807;48.258;12.690;2023-10-13T03:14:45;17.20;99.90
19342;DHT22;9807;48.258;12.690;2023-10-13T03:17:14;17.20;99.90
19342;DHT22;9807;48.258;12.690;2023-10-13T03:19:46;17.20;99.90
19342;DHT22;9807;48.258;12.690;2023-10-13T03:22:15;17.20;99.90
19342;DHT22;9807;48.258;12.690;2023-10-13T03:24:42;17.20;99.90
19342;DHT22;9807;48.258;12.690;2023-10-13T03:27:17;17.20;99.90
19342;DHT22;9807;48.258;12.690;2023-10-13T03:29:45;17.10;99.90
19342;DHT22;9807;48.258;12.690;2023-10-13T03:32:15;17.10;99.90
19342;DHT22;9807;48.258;12.690;2023-10-13T03:34:45;17.10;99.90
19342;DHT22;9807;48.258;12.690;2023-10-13T03:37:36;17.00;99.90
19342;DHT22;9807;48.258;12.690;2023-10-13T03:40:10;17.00;99.90
19342;DHT22;9807;48.258;12.690;2023-10-13T03:43:02;17.00;99.90
19342;DHT22;9807;48.258;12.690;2023-10-13T03:48:08;17.00;99.90
19342;DHT22;9807;48.258;12.690;2023-10-13T03:50:46;17.00;99.90
19342;DHT22;9807;48.258;12.690;2023-10-13T03:53:14;16.70;99.90
19342;DHT22;9807;48.258;12.690;2023-10-13T03:55:41;16.60;99.90
19342;DHT22;9807;48.258;12.690;2023-10-13T03:58:14;16.60;99.90
19342;DHT22;9807;48.258;12.690;2023-10-13T04:00:42;16.60;99.90
19342;DHT22;9807;48.258;12.690;2023-10-13T04:03:08;16.60;99.90
19342;DHT22;9807;48.258;12.690;2023-10-13T04:05:35;16.70;99.90
19342;DHT22;9807;48.258;12.690;2023-10-13T04:08:06;16.70;99.90
19342;DHT22;9807;48.258;12.690;2023-10-13T04:10:56;16.80;99.90
19342;DHT22;9807;48.258;12.690;2023-10-13T04:13:22;16.80;99.90
19342;DHT22;9807;48.258;12.690;2023-10-13T04:16:08;16.80;99.90
19342;DHT22;9807;48.258;12.690;2023-10-13T04:18:49;16.80;99.90
19342;DHT22;9807;48.258;12.690;2023-10-13T04:21:24;16.60;99.90
19342;DHT22;9807;48.258;12.690;2023-10-13T04:27:24;16.30;99.90
19342;DHT22;9807;48.258;12.690;2023-10-13T04:30:05;16.40;99.90
19342;DHT22;9807;48.258;12.690;2023-10-13T04:32:34;16.40;99.90
19342;DHT22;9807;48.258;12.690;2023-10-13T04:35:11;16.50;99.90
19342;DHT22;9807;48.258;12.690;2023-10-13T04:37:40;16.50;99.90
19342;DHT22;9807;48.258;12.690;2023-10-13T04:40:27;16.60;99.90
19342;DHT22;9807;48.258;12.690;2023-10-13T04:42:56;16.60;99.90
19342;DHT22;9807;48.258;12.690;2023-10-13T04:45:30;16.50;99.90
19342;DHT22;9807;48.258;12.690;2023-10-13T04:47:56;16.60;99.90
19342;DHT22;9807;48.258;12.690;2023-10-13T04:50:23;16.50;99.90
19342;DHT22;9807;48.258;12.690;2023-10-13T04:53:07;16.60;99.90
19342;DHT22;9807;48.258;12.690;2023-10-13T04:55:52;16.50;99.90
19342;DHT22;9807;48.258;12.690;2023-10-13T04:58:33;16.40;99.90
19342;DHT22;9807;48.258;12.690;2023-10-13T05:01:00;16.30;99.90
19342;DHT22;9807;48.258;12.690;2023-10-13T05:03:44;16.20;99.90
19342;DHT22;9807;48.258;12.690;2023-10-13T05:06:19;16.30;99.90
19342;DHT22;9807;48.258;12.690;2023-10-13T05:09:03;16.30;99.90
19342;DHT22;9807;48.258;12.690;2023-10-13T05:11:48;16.40;99.90
19342;DHT22;9807;48.258;12.690;2023-10-13T05:14:32;16.40;99.90
19342;DHT22;9807;48.258;12.690;2023-10-13T05:17:16;16.50;99.90
19342;DHT22;9807;48.258;12.690;2023-10-13T05:20:00;16.40;99.90
19342;DHT22;9807;48.258;12.690;2023-10-13T05:22:44;16.40;99.90
19342;DHT22;9807;48.258;12.690;2023-10-13T05:25:29;16.40;99.90
19342;DHT22;9807;48.258;12.690;2023-10-13T05:28:13;16.40;99.90
19342;DHT22;9807;48.258;12.690;2023-10-13T05:31:02;16.40;99.90
19342;DHT22;9807;48.258;12.690;2023-10-13T05:33:46;16.20;99.90
19342;DHT22;9807;48.258;12.690;2023-10-13T05:36:30;16.20;99.90
19342;DHT22;9807;48.258;12.690;2023-10-13T05:39:15;16.20;99.90
19342;DHT22;9807;48.258;12.690;2023-10-13T05:41:59;16.10;99.90
19342;DHT22;9807;48.258;12.690;2023-10-13T05:44:48;16.00;99.90
19342;DHT22;9807;48.258;12.690;2023-10-13T05:47:34;16.10;99.90
19342;DHT22;9807;48.258;12.690;2023-10-13T05:50:06;16.10;99.90
19342;DHT22;9807;48.258;12.690;2023-10-13T05:52:41;16.00;99.90
19342;DHT22;9807;48.258;12.690;2023-10-13T05:55:29;16.10;99.90
19342;DHT22;9807;48.258;12.690;2023-10-13T05:58:15;16.00;99.90
19342;DHT22;9807;48.258;12.690;2023-10-13T06:01:00;16.00;99.90
19342;DHT22;9807;48.258;12.690;2023-10-13T06:03:44;16.10;99.90
19342;DHT22;9807;48.258;12.690;2023-10-13T06:06:28;16.00;99.90
19342;DHT22;9807;48.258;12.690;2023-10-13T06:09:12;15.70;99.90
19342;DHT22;9807;48.258;12.690;2023-10-13T06:11:58;15.50;99.90
19342;DHT22;9807;48.258;12.690;2023-10-13T06:14:46;15.60;99.90
19342;DHT22;9807;48.258;12.690;2023-10-13T06:17:30;15.70;99.90
19342;DHT22;9807;48.258;12.690;2023-10-13T06:20:14;15.80;99.90
19342;DHT22;9807;48.258;12.690;2023-10-13T06:22:59;16.00;99.90
19342;DHT22;9807;48.258;12.690;2023-10-13T06:25:43;16.00;99.90
19342;DHT22;9807;48.258;12.690;2023-10-13T06:28:33;16.10;99.90
19342;DHT22;9807;48.258;12.690;2023-10-13T06:31:10;16.20;99.90
19342;DHT22;9807;48.258;12.690;2023-10-13T06:33:48;16.20;99.90
19342;DHT22;9807;48.258;12.690;2023-10-13T06:36:14;16.30;99.90
19342;DHT22;9807;48.258;12.690;2023-10-13T06:38:40;16.40;99.90
19342;DHT22;9807;48.258;12.690;2023-10-13T06:41:07;16.50;99.90
19342;DHT22;9807;48.258;12.690;2023-10-13T06:43:36;16.50;99.90
19342;DHT22;9807;48.258;12.690;2023-10-13T06:46:06;16.50;99.90
19342;DHT22;9807;48.258;12.690;2023-10-13T06:48:33;16.50;99.90
19342;DHT22;9807;48.258;12.690;2023-10-13T06:51:01;16.20;99.90
19342;DHT22;9807;48.258;12.690;2023-10-13T06:53:49;15.90;99.90
19342;DHT22;9807;48.258;12.690;2023-10-13T06:56:22;16.00;99.90
19342;DHT22;9807;48.258;12.690;2023-10-13T06:58:54;16.20;99.90
19342;DHT22;9807;48.258;12.690;2023-10-13T07:01:29;16.40;99.90
19342;DHT22;9807;48.258;12.690;2023-10-13T07:03:55;16.60;99.90
19342;DHT22;9807;48.258;12.690;2023-10-13T07:06:27;16.80;99.90
19342;DHT22;9807;48.258;12.690;2023-10-13T07:08:53;17.00;99.90
19342;DHT22;9807;48.258;12.690;2023-10-13T07:11:28;17.20;99.90
19342;DHT22;9807;48.258;12.690;2023-10-13T07:14:03;17.30;99.90
19342;DHT22;9807;48.258;12.690;2023-10-13T07:16:43;17.40;99.90
19342;DHT22;9807;48.258;12.690;2023-10-13T07:19:13;17.50;99.90
19342;DHT22;9807;48.258;12.690;2023-10-13T07:21:46;17.70;99.90
19342;DHT22;9807;48.258;12.690;2023-10-13T07:24:14;17.70;99.90
19342;DHT22;9807;48.258;12.690;2023-10-13T07:26:41;17.90;99.90
19342;DHT22;9807;48.258;12.690;2023-10-13T07:29:12;18.00;99.90
19342;DHT22;9807;48.258;12.690;2023-10-13T07:31:39;18.10;99.90
19342;DHT22;9807;48.258;12.690;2023-10-13T07:34:07;18.10;99.90
19342;DHT22;9807;48.258;12.690;2023-10-13T07:36:54;18.20;99.90
19342;DHT22;9807;48.258;12.690;2023-10-13T07:39:25;18.30;99.90
19342;DHT22;9807;48.258;12.690;2023-10-13T07:41:52;18.40;99.90
19342;DHT22;9807;48.258;12.690;2023-10-13T07:44:29;18.40;99.90
19342;DHT22;9807;48.258;12.690;2023-10-13T07:46:57;18.30;99.90
19342;DHT22;9807;48.258;12.690;2023-10-13T07:49:37;18.40;99.90
19342;DHT22;9807;48.258;12.690;2023-10-13T07:52:10;18.50;99.90
19342;DHT22;9807;48.258;12.690;2023-10-13T07:54:46;18.50;99.90
19342;DHT22;9807;48.258;12.690;2023-10-13T07:57:15;18.40;99.90
19342;DHT22;9807;48.258;12.690;2023-10-13T07:59:42;18.40;99.90
19342;DHT22;9807;48.258;12.690;2023-10-13T08:02:19;18.40;99.90
19342;DHT22;9807;48.258;12.690;2023-10-13T08:05:15;18.50;99.90
19342;DHT22;9807;48.258;12.690;2023-10-13T08:07:51;18.50;99.90
19342;DHT22;9807;48.258;12.690;2023-10-13T08:10:18;18.50;99.90
19342;DHT22;9807;48.258;12.690;2023-10-13T08:12:44;18.50;99.90
19342;DHT22;9807;48.258;12.690;2023-10-13T08:15:09;18.50;99.90
19342;DHT22;9807;48.258;12.690;2023-10-13T08:17:47;18.60;99.90
19342;DHT22;9807;48.258;12.690;2023-10-13T08:20:17;18.60;99.90
19342;DHT22;9807;48.258;12.690;2023-10-13T08:22:43;18.60;99.90
19342;DHT22;9807;48.258;12.690;2023-10-13T08:25:13;18.70;99.90
19342;DHT22;9807;48.258;12.690;2023-10-13T08:27:50;18.80;99.90
19342;DHT22;9807;48.258;12.690;2023-10-13T08:30:35;18.90;99.90
19342;DHT22;9807;48.258;12.690;2023-10-13T08:33:17;19.00;99.90
19342;DHT22;9807;48.258;12.690;2023-10-13T08:35:43;19.10;99.90
19342;DHT22;9807;48.258;12.690;2023-10-13T08:38:20;19.20;99.90
19342;DHT22;9807;48.258;12.690;2023-10-13T08:40:59;19.00;99.90
19342;DHT22;9807;48.258;12.690;2023-10-13T08:43:43;19.00;99.90
19342;DHT22;9807;48.258;12.690;2023-10-13T08:46:19;19.00;99.90
19342;DHT22;9807;48.258;12.690;2023-10-13T08:48:56;19.10;99.90
19342;DHT22;9807;48.258;12.690;2023-10-13T08:51:35;19.30;99.90
19342;DHT22;9807;48.258;12.690;2023-10-13T08:54:33;19.30;99.90
19342;DHT22;9807;48.258;12.690;2023-10-13T08:57:04;19.40;99.90
19342;DHT22;9807;48.258;12.690;2023-10-13T08:59:55;19.50;99.90
19342;DHT22;9807;48.258;12.690;2023-10-13T09:02:24;19.50;99.90
19342;DHT22;9807;48.258;12.690;2023-10-13T09:05:09;19.50;99.90
19342;DHT22;9807;48.258;12.690;2023-10-13T09:07:55;19.40;99.90
19342;DHT22;9807;48.258;12.690;2023-10-13T09:10:23;19.50;99.90
19342;DHT22;9807;48.258;12.690;2023-10-13T09:13:10;19.60;99.90
19342;DHT22;9807;48.258;12.690;2023-10-13T09:15:44;19.70;99.90
19342;DHT22;9807;48.258;12.690;2023-10-13T09:18:30;19.70;99.90
19342;DHT22;9807;48.258;12.690;2023-10-13T09:21:11;19.80;99.90
19342;DHT22;9807;48.258;12.690;2023-10-13T09:24:00;19.80;99.90
19342;DHT22;9807;48.258;12.690;2023-10-13T09:26:44;19.90;99.90
19342;DHT22;9807;48.258;12.690;2023-10-13T09:29:19;20.00;99.90
19342;DHT22;9807;48.258;12.690;2023-10-13T09:31:47;20.10;99.90
19342;DHT22;9807;48.258;12.690;2023-10-13T09:34:20;20.10;99.90
19342;DHT22;9807;48.258;12.690;2023-10-13T09:36:49;20.20;99.90
19342;DHT22;9807;48.258;12.690;2023-10-13T09:39:24;20.20;99.90
19342;DHT22;9807;48.258;12.690;2023-10-13T09:41:59;20.30;99.90
19342;DHT22;9807;48.258;12.690;2023-10-13T09:44:26;20.40;99.90
19342;DHT22;9807;48.258;12.690;2023-10-13T09:47:07;20.40;99.90
19342;DHT22;9807;48.258;12.690;2023-10-13T09:49:44;20.50;99.90
19342;DHT22;9807;48.258;12.690;2023-10-13T09:52:18;20.70;99.90
19342;DHT22;9807;48.258;12.690;2023-10-13T09:57:43;20.90;99.90
19342;DHT22;9807;48.258;12.690;2023-10-13T10:00:17;20.90;99.90
19342;DHT22;9807;48.258;12.690;2023-10-13T10:03:16;21.10;99.90
19342;DHT22;9807;48.258;12.690;2023-10-13T10:06:00;21.20;99.90
19342;DHT22;9807;48.258;12.690;2023-10-13T10:08:31;21.30;99.90
19342;DHT22;9807;48.258;12.690;2023-10-13T10:13:47;21.50;99.90
19342;DHT22;9807;48.258;12.690;2023-10-13T10:16:29;21.60;99.90
19342;DHT22;9807;48.258;12.690;2023-10-13T10:19:02;21.70;99.90
19342;DHT22;9807;48.258;12.690;2023-10-13T10:21:35;21.90;99.90
19342;DHT22;9807;48.258;12.690;2023-10-13T10:24:01;21.90;99.90
19342;DHT22;9807;48.258;12.690;2023-10-13T10:26:33;22.00;99.90
19342;DHT22;9807;48.258;12.690;2023-10-13T10:28:59;22.10;99.90
19342;DHT22;9807;48.258;12.690;2023-10-13T10:31:33;22.20;99.90
19342;DHT22;9807;48.258;12.690;2023-10-13T10:34:16;22.10;99.90
19342;DHT22;9807;48.258;12.690;2023-10-13T10:36:47;22.10;99.90
19342;DHT22;9807;48.258;12.690;2023-10-13T10:39:13;22.00;99.90
19342;DHT22;9807;48.258;12.690;2023-10-13T10:41:40;22.10;99.90
19342;DHT22;9807;48.258;12.690;2023-10-13T10:44:19;22.10;99.90
19342;DHT22;9807;48.258;12.690;2023-10-13T10:46:51;22.20;99.90
19342;DHT22;9807;48.258;12.690;2023-10-13T10:49:25;22.30;99.90
19342;DHT22;9807;48.258;12.690;2023-10-13T10:51:59;22.40;99.90
19342;DHT22;9807;48.258;12.690;2023-10-13T10:54:30;22.50;99.90
19342;DHT22;9807;48.258;12.690;2023-10-13T10:56:58;22.60;99.90
19342;DHT22;9807;48.258;12.690;2023-10-13T10:59:39;22.70;99.90
19342;DHT22;9807;48.258;12.690;2023-10-13T11:02:06;22.70;99.90
19342;DHT22;9807;48.258;12.690;2023-10-13T11:04:33;22.70;99.90
19342;DHT22;9807;48.258;12.690;2023-10-13T11:07:23;22.70;99.90
19342;DHT22;9807;48.258;12.690;2023-10-13T11:09:49;22.80;99.90
19342;DHT22;9807;48.258;12.690;2023-10-13T11:12:18;22.70;99.90
19342;DHT22;9807;48.258;12.690;2023-10-13T11:17:26;22.60;99.90
19342;DHT22;9807;48.258;12.690;2023-10-13T11:20:16;22.70;99.90
19342;DHT22;9807;48.258;12.690;2023-10-13T11:22:46;22.80;99.90
19342;DHT22;9807;48.258;12.690;2023-10-13T11:25:21;23.10;99.90
19342;DHT22;9807;48.258;12.690;2023-10-13T11:27:48;23.20;99.90
19342;DHT22;9807;48.258;12.690;2023-10-13T11:30:19;23.30;99.90
19342;DHT22;9807;48.258;12.690;2023-10-13T11:33:10;23.40;99.90
19342;DHT22;9807;48.258;12.690;2023-10-13T11:35:38;23.60;99.90
19342;DHT22;9807;48.258;12.690;2023-10-13T11:38:37;23.60;99.90
19342;DHT22;9807;48.258;12.690;2023-10-13T11:41:05;23.60;99.90
19342;DHT22;9807;48.258;12.690;2023-10-13T11:43:35;23.50;99.90
19342;DHT22;9807;48.258;12.690;2023-10-13T11:46:23;23.40;99.90
19342;DHT22;9807;48.258;12.690;2023-10-13T11:49:05;23.40;99.90
19342;DHT22;9807;48.258;12.690;2023-10-13T11:51:54;23.50;99.90
19342;DHT22;9807;48.258;12.690;2023-10-13T11:54:40;23.50;99.90
19342;DHT22;9807;48.258;12.690;2023-10-13T11:57:08;23.50;99.90
19342;DHT22;9807;48.258;12.690;2023-10-13T11:59:33;23.40;99.90
19342;DHT22;9807;48.258;12.690;2023-10-13T12:02:02;23.40;99.90
19342;DHT22;9807;48.258;12.690;2023-10-13T12:04:38;23.40;99.90
19342;DHT22;9807;48.258;12.690;2023-10-13T12:07:15;23.40;99.90
19342;DHT22;9807;48.258;12.690;2023-10-13T12:09:50;23.50;99.90
19342;DHT22;9807;48.258;12.690;2023-10-13T12:12:22;23.50;99.90
19342;DHT22;9807;48.258;12.690;2023-10-13T12:14:48;23.50;99.90
19342;DHT22;9807;48.258;12.690;2023-10-13T12:17:22;23.80;99.90
19342;DHT22;9807;48.258;12.690;2023-10-13T12:20:00;23.90;99.90
19342;DHT22;9807;48.258;12.690;2023-10-13T12:22:30;23.90;99.90
19342;DHT22;9807;48.258;12.690;2023-10-13T12:25:07;23.90;99.90
19342;DHT22;9807;48.258;12.690;2023-10-13T12:28:00;23.90;99.90
19342;DHT22;9807;48.258;12.690;2023-10-13T12:30:47;23.90;99.90
19342;DHT22;9807;48.258;12.690;2023-10-13T12:33:19;24.30;99.90
19342;DHT22;9807;48.258;12.690;2023-10-13T12:36:02;24.30;99.90
19342;DHT22;9807;48.258;12.690;2023-10-13T12:38:33;24.40;99.90
19342;DHT22;9807;48.258;12.690;2023-10-13T12:41:22;24.50;99.90
19342;DHT22;9807;48.258;12.690;2023-10-13T12:44:07;24.50;99.90
19342;DHT22;9807;48.258;12.690;2023-10-13T12:46:52;24.40;99.90
19342;DHT22;9807;48.258;12.690;2023-10-13T12:49:37;24.40;99.90
19342;DHT22;9807;48.258;12.690;2023-10-13T12:52:17;24.50;99.90
19342;DHT22;9807;48.258;12.690;2023-10-13T12:54:50;24.60;99.90
19342;DHT22;9807;48.258;12.690;2023-10-13T12:57:23;24.50;99.90
19342;DHT22;9807;48.258;12.690;2023-10-13T12:59:49;24.40;99.90
19342;DHT22;9807;48.258;12.690;2023-10-13T13:02:22;24.40;99.90
19342;DHT22;9807;48.258;12.690;2023-10-13T13:04:54;24.40;99.90
19342;DHT22;9807;48.258;12.690;2023-10-13T13:07:23;24.50;99.90
19342;DHT22;9807;48.258;12.690;2023-10-13T13:09:55;24.50;99.90
19342;DHT22;9807;48.258;12.690;2023-10-13T13:12:24;24.60;99.90
19342;DHT22;9807;48.258;12.690;2023-10-13T13:14:50;24.60;99.90
19342;DHT22;9807;48.258;12.690;2023-10-13T13:17:21;24.60;99.90
19342;DHT22;9807;48.258;12.690;2023-10-13T13:19:47;24.60;99.90
19342;DHT22;9807;48.258;12.690;2023-10-13T13:22:12;24.70;99.90
19342;DHT22;9807;48.258;12.690;2023-10-13T13:24:42;24.60;99.90
19342;DHT22;9807;48.258;12.690;2023-10-13T13:27:13;24.60;99.90
19342;DHT22;9807;48.258;12.690;2023-10-13T13:29:44;24.60;99.90
19342;DHT22;9807;48.258;12.690;2023-10-13T13:32:10;24.80;99.90
19342;DHT22;9807;48.258;12.690;2023-10-13T13:34:52;25.10;99.90
19342;DHT22;9807;48.258;12.690;2023-10-13T13:37:34;25.30;99.90
19342;DHT22;9807;48.258;12.690;2023-10-13T13:40:04;25.40;99.90
19342;DHT22;9807;48.258;12.690;2023-10-13T13:42:44;25.40;99.90
19342;DHT22;9807;48.258;12.690;2023-10-13T13:45:15;25.30;99.90
19342;DHT22;9807;48.258;12.690;2023-10-13T13:47:48;25.30;99.90
19342;DHT22;9807;48.258;12.690;2023-10-13T13:50:22;25.40;99.90
19342;DHT22;9807;48.258;12.690;2023-10-13T13:52:53;25.50;99.90
19342;DHT22;9807;48.258;12.690;2023-10-13T13:55:24;25.50;99.90
19342;DHT22;9807;48.258;12.690;2023-10-13T13:57:55;25.60;99.90
19342;DHT22;9807;48.258;12.690;2023-10-13T14:00:21;25.70;99.90
19342;DHT22;9807;48.258;12.690;2023-10-13T14:03:06;25.90;99.90
19342;DHT22;9807;48.258;12.690;2023-10-13T14:05:44;25.80;99.90
19342;DHT22;9807;48.258;12.690;2023-10-13T14:08:09;25.60;99.90
19342;DHT22;9807;48.258;12.690;2023-10-13T14:10:40;25.40;99.90
19342;DHT22;9807;48.258;12.690;2023-10-13T14:13:28;25.40;99.90
19342;DHT22;9807;48.258;12.690;2023-10-13T14:16:31;25.30;99.90
19342;DHT22;9807;48.258;12.690;2023-10-13T14:19:02;25.20;99.90
19342;DHT22;9807;48.258;12.690;2023-10-13T14:21:32;25.30;99.90
19342;DHT22;9807;48.258;12.690;2023-10-13T14:24:00;25.40;99.90
19342;DHT22;9807;48.258;12.690;2023-10-13T14:26:27;25.40;99.90
19342;DHT22;9807;48.258;12.690;2023-10-13T14:28:53;25.50;99.90
19342;DHT22;9807;48.258;12.690;2023-10-13T14:31:35;25.40;99.90
19342;DHT22;9807;48.258;12.690;2023-10-13T14:34:05;25.30;99.90
19342;DHT22;9807;48.258;12.690;2023-10-13T14:36:30;25.20;99.90
19342;DHT22;9807;48.258;12.690;2023-10-13T14:39:00;25.10;99.90
19342;DHT22;9807;48.258;12.690;2023-10-13T14:41:26;25.10;99.90
19342;DHT22;9807;48.258;12.690;2023-10-13T14:43:52;25.00;99.90
19342;DHT22;9807;48.258;12.690;2023-10-13T14:46:19;25.00;99.90
19342;DHT22;9807;48.258;12.690;2023-10-13T14:48:51;25.00;99.90
19342;DHT22;9807;48.258;12.690;2023-10-13T14:51:16;24.90;99.90
19342;DHT22;9807;48.258;12.690;2023-10-13T14:53:46;24.90;99.90
19342;DHT22;9807;48.258;12.690;2023-10-13T14:56:12;24.80;99.90
19342;DHT22;9807;48.258;12.690;2023-10-13T14:58:38;24.80;99.90
19342;DHT22;9807;48.258;12.690;2023-10-13T15:01:15;24.70;99.90
19342;DHT22;9807;48.258;12.690;2023-10-13T15:03:46;24.70;99.90
19342;DHT22;9807;48.258;12.690;2023-10-13T15:06:22;24.60;99.90
19342;DHT22;9807;48.258;12.690;2023-10-13T15:08:58;24.60;99.90
19342;DHT22;9807;48.258;12.690;2023-10-13T15:11:26;24.60;99.90
19342;DHT22;9807;48.258;12.690;2023-10-13T15:14:04;24.60;99.90
19342;DHT22;9807;48.258;12.690;2023-10-13T15:16:32;24.50;99.90
19342;DHT22;9807;48.258;12.690;2023-10-13T15:19:01;24.50;99.90
19342;DHT22;9807;48.258;12.690;2023-10-13T15:21:30;24.60;99.90
19342;DHT22;9807;48.258;12.690;2023-10-13T15:24:05;24.50;99.90
19342;DHT22;9807;48.258;12.690;2023-10-13T15:26:43;24.50;99.90
19342;DHT22;9807;48.258;12.690;2023-10-13T15:29:16;24.50;99.90
19342;DHT22;9807;48.258;12.690;2023-10-13T15:31:45;24.50;99.90
19342;DHT22;9807;48.258;12.690;2023-10-13T15:34:28;24.40;99.90
19342;DHT22;9807;48.258;12.690;2023-10-13T15:36:55;24.40;99.90
19342;DHT22;9807;48.258;12.690;2023-10-13T15:39:24;24.40;99.90
19342;DHT22;9807;48.258;12.690;2023-10-13T15:41:54;24.40;99.90
19342;DHT22;9807;48.258;12.690;2023-10-13T15:44:24;24.40;99.90
19342;DHT22;9807;48.258;12.690;2023-10-13T15:46:54;24.40;99.90
19342;DHT22;9807;48.258;12.690;2023-10-13T15:49:21;24.40;99.90
19342;DHT22;9807;48.258;12.690;2023-10-13T15:51:47;24.40;99.90
19342;DHT22;9807;48.258;12.690;2023-10-13T15:54:16;24.40;99.90
19342;DHT22;9807;48.258;12.690;2023-10-13T15:59:09;24.30;99.90
19342;DHT22;9807;48.258;12.690;2023-10-13T16:01:37;24.20;99.90
19342;DHT22;9807;48.258;12.690;2023-10-13T16:04:05;24.10;99.90
19342;DHT22;9807;48.258;12.690;2023-10-13T16:06:40;24.10;99.90
19342;DHT22;9807;48.258;12.690;2023-10-13T16:09:07;24.00;99.90
19342;DHT22;9807;48.258;12.690;2023-10-13T16:11:43;24.00;99.90
19342;DHT22;9807;48.258;12.690;2023-10-13T16:14:14;23.90;99.90
19342;DHT22;9807;48.258;12.690;2023-10-13T16:16:50;23.80;99.90
19342;DHT22;9807;48.258;12.690;2023-10-13T16:19:19;23.80;99.90
19342;DHT22;9807;48.258;12.690;2023-10-13T16:21:52;23.70;99.90
19342;DHT22;9807;48.258;12.690;2023-10-13T16:24:20;23.60;99.90
19342;DHT22;9807;48.258;12.690;2023-10-13T16:26:50;23.50;99.90
19342;DHT22;9807;48.258;12.690;2023-10-13T16:29:18;23.50;99.90
19342;DHT22;9807;48.258;12.690;2023-10-13T16:31:45;23.40;99.90